Time;durP1;ratioP1;P1;durP2;ratioP2;P2;SDS_P1;SDS_P2;PMS_P1;PMS_P2;Temp;Humidity;BMP_temperature;BMP_pressure;BME280_temperature;BME280_humidity;BME280_pressure;Samples;Min_cycle;Max_cycle;Signal;HPM_P1;HPM_P2
2022/04/11 00:00:32;;;;;;;;;;;10.70;94.10;;;;;;5093897;28;19932;-81
2022/04/11 00:02:59;;;;;;;;;;;10.60;94.20;;;;;;5094048;28;20336;-82
2022/04/11 00:05:26;;;;;;;;;;;10.50;94.10;;;;;;5093959;28;19970;-82
2022/04/11 00:07:52;;;;;;;;;;;10.50;94.10;;;;;;5093859;28;19964;-81
2022/04/11 00:10:19;;;;;;;;;;;10.60;93.90;;;;;;5093513;28;19968;-82
2022/04/11 00:12:46;;;;;;;;;;;10.50;94.10;;;;;;5093737;28;20343;-82
2022/04/11 00:15:13;;;;;;;;;;;10.50;94.30;;;;;;5093851;28;19963;-83
2022/04/11 00:17:41;;;;;;;;;;;10.50;94.10;;;;;;5093712;28;19924;-82
2022/04/11 00:20:08;;;;;;;;;;;10.50;94.00;;;;;;5093475;28;19982;-82
2022/04/11 00:22:35;;;;;;;;;;;10.50;93.90;;;;;;5093788;28;19991;-82
2022/04/11 00:25:02;;;;;;;;;;;10.50;93.80;;;;;;5093559;28;19979;-82
2022/04/11 00:27:29;;;;;;;;;;;10.50;93.80;;;;;;5093488;28;19928;-82
2022/04/11 00:29:55;;;;;;;;;;;10.50;94.10;;;;;;5093715;28;19956;-82
2022/04/11 00:32:22;;;;;;;;;;;10.40;94.10;;;;;;5093291;28;19974;-82
2022/04/11 00:34:50;;;;;;;;;;;10.40;94.00;;;;;;5093427;28;19985;-82
2022/04/11 00:37:17;;;;;;;;;;;10.20;94.00;;;;;;5093380;28;19979;-82
2022/04/11 00:39:44;;;;;;;;;;;10.20;94.00;;;;;;5096762;28;19928;-82
2022/04/11 00:42:13;;;;;;;;;;;10.10;94.30;;;;;;5097247;28;19924;-82
2022/04/11 00:44:40;;;;;;;;;;;10.20;94.50;;;;;;5096985;28;19928;-82
2022/04/11 00:47:07;;;;;;;;;;;10.30;94.30;;;;;;5097191;28;19974;-82
2022/04/11 00:49:33;;;;;;;;;;;10.20;94.30;;;;;;5096610;28;19924;-82
2022/04/11 00:52:02;;;;;;;;;;;9.60;93.80;;;;;;5096834;28;19924;-82
2022/04/11 00:54:29;;;;;;;;;;;10.30;93.90;;;;;;5096538;28;19924;-81
2022/04/11 00:56:56;;;;;;;;;;;10.30;93.80;;;;;;5097065;28;20336;-81
2022/04/11 00:59:23;;;;;;;;;;;10.30;93.30;;;;;;5096877;28;19963;-81
2022/04/11 01:01:50;;;;;;;;;;;10.30;93.30;;;;;;5097062;28;20001;-82
2022/04/11 01:04:24;;;;;;;;;;;10.30;93.40;;;;;;5097075;28;19970;-82
2022/04/11 01:06:50;;;;;;;;;;;10.20;93.60;;;;;;5096899;28;19924;-81
2022/04/11 01:09:19;;;;;;;;;;;10.00;93.50;;;;;;5096755;28;19924;-81
2022/04/11 01:11:45;;;;;;;;;;;9.50;92.70;;;;;;5096853;28;19967;-81
2022/04/11 01:14:12;;;;;;;;;;;10.30;92.50;;;;;;5096435;28;19978;-81
2022/04/11 01:16:39;;;;;;;;;;;10.10;92.30;;;;;;5096891;28;19958;-81
2022/04/11 01:19:06;;;;;;;;;;;10.10;92.20;;;;;;5096793;28;19956;-81
2022/04/11 01:21:34;;;;;;;;;;;9.90;92.40;;;;;;5096655;28;19971;-81
2022/04/11 01:24:01;;;;;;;;;;;9.90;92.20;;;;;;5096387;28;19977;-82
2022/04/11 01:26:27;;;;;;;;;;;10.00;91.90;;;;;;5096531;28;19963;-81
2022/04/11 01:28:54;;;;;;;;;;;9.90;91.60;;;;;;5096656;28;19928;-81
2022/04/11 01:31:21;;;;;;;;;;;9.90;91.50;;;;;;5096421;28;19928;-82
2022/04/11 01:33:48;;;;;;;;;;;9.80;91.50;;;;;;5096227;28;19928;-81
2022/04/11 01:36:14;;;;;;;;;;;9.80;91.00;;;;;;5095859;28;19924;-81
2022/04/11 01:38:43;;;;;;;;;;;9.80;90.80;;;;;;5095646;28;19928;-82
2022/04/11 01:41:09;;;;;;;;;;;9.80;91.00;;;;;;5095555;28;19967;-81
2022/04/11 01:43:36;;;;;;;;;;;9.80;90.50;;;;;;5095846;28;19924;-81
2022/04/11 01:46:03;;;;;;;;;;;9.70;90.40;;;;;;5095961;28;19928;-81
2022/04/11 01:48:29;;;;;;;;;;;9.60;90.50;;;;;;5094884;28;20394;-81
2022/04/11 01:50:56;;;;;;;;;;;9.60;90.40;;;;;;5095637;28;19974;-82
2022/04/11 01:53:23;;;;;;;;;;;9.40;90.30;;;;;;5095545;28;19931;-81
2022/04/11 01:55:51;;;;;;;;;;;9.60;90.00;;;;;;5095309;28;19924;-81
2022/04/11 01:58:18;;;;;;;;;;;9.50;90.00;;;;;;5095550;28;20037;-82
2022/04/11 02:00:44;;;;;;;;;;;9.40;89.40;;;;;;5095876;28;19978;-81
2022/04/11 02:03:11;;;;;;;;;;;9.40;89.60;;;;;;5095505;28;19975;-82
2022/04/11 02:05:39;;;;;;;;;;;9.50;88.30;;;;;;5095730;28;19924;-81
2022/04/11 02:08:07;;;;;;;;;;;9.50;87.90;;;;;;5095530;28;19995;-82
2022/04/11 02:10:35;;;;;;;;;;;9.50;87.30;;;;;;5095583;28;20015;-81
2022/04/11 02:13:03;;;;;;;;;;;9.50;87.30;;;;;;5095695;28;19925;-81
2022/04/11 02:15:30;;;;;;;;;;;9.50;86.70;;;;;;5095278;28;19928;-81
2022/04/11 02:17:56;;;;;;;;;;;9.50;86.70;;;;;;5095291;28;19928;-81
2022/04/11 02:20:23;;;;;;;;;;;9.50;86.60;;;;;;5095227;28;20458;-82
2022/04/11 02:22:50;;;;;;;;;;;9.50;86.80;;;;;;5095414;28;20289;-82
2022/04/11 02:25:18;;;;;;;;;;;9.40;86.90;;;;;;5095297;28;19924;-82
2022/04/11 02:27:45;;;;;;;;;;;9.40;87.50;;;;;;5095130;28;19979;-82
2022/04/11 02:30:15;;;;;;;;;;;9.40;87.60;;;;;;5095032;28;19974;-82
2022/04/11 02:32:42;;;;;;;;;;;9.30;87.60;;;;;;5095220;28;19924;-82
2022/04/11 02:35:09;;;;;;;;;;;9.20;88.30;;;;;;5095171;28;19975;-82
2022/04/11 02:37:36;;;;;;;;;;;9.10;88.40;;;;;;5094915;28;19924;-82
2022/04/11 02:40:03;;;;;;;;;;;9.10;88.40;;;;;;5094738;28;20394;-81
2022/04/11 02:42:30;;;;;;;;;;;9.00;89.00;;;;;;5094912;28;19924;-81
2022/04/11 02:44:57;;;;;;;;;;;9.00;88.60;;;;;;5095006;28;19924;-81
2022/04/11 02:47:25;;;;;;;;;;;9.00;88.80;;;;;;5094932;28;19986;-80
2022/04/11 02:49:52;;;;;;;;;;;8.90;88.70;;;;;;5095056;28;19931;-80
2022/04/11 02:52:19;;;;;;;;;;;8.90;88.40;;;;;;5094773;28;19924;-81
2022/04/11 02:54:45;;;;;;;;;;;9.00;88.40;;;;;;5094978;28;19924;-80
2022/04/11 02:57:12;;;;;;;;;;;8.80;88.40;;;;;;5094642;28;19959;-80
2022/04/11 02:59:39;;;;;;;;;;;8.80;88.50;;;;;;5094917;28;19966;-80
2022/04/11 03:02:06;;;;;;;;;;;8.80;88.30;;;;;;5094094;28;19959;-80
2022/04/11 03:04:34;;;;;;;;;;;8.80;88.80;;;;;;5094326;28;19946;-82
2022/04/11 03:07:00;;;;;;;;;;;8.80;89.20;;;;;;5094336;28;20267;-82
2022/04/11 03:09:27;;;;;;;;;;;8.90;90.00;;;;;;5094013;28;20366;-81
2022/04/11 03:11:54;;;;;;;;;;;8.70;90.30;;;;;;5094157;28;19939;-81
2022/04/11 03:14:20;;;;;;;;;;;8.70;90.50;;;;;;5094353;28;19959;-82
2022/04/11 03:16:47;;;;;;;;;;;8.60;91.10;;;;;;5093895;28;20336;-82
2022/04/11 03:19:14;;;;;;;;;;;8.60;91.20;;;;;;5094150;28;19971;-81
2022/04/11 03:21:42;;;;;;;;;;;8.70;91.50;;;;;;5093649;28;19971;-82
2022/04/11 03:24:09;;;;;;;;;;;8.70;91.80;;;;;;5093397;28;20378;-82
2022/04/11 03:26:36;;;;;;;;;;;8.60;91.90;;;;;;5093775;28;19924;-82
2022/04/11 03:29:03;;;;;;;;;;;8.50;92.40;;;;;;5094543;28;20026;-82
2022/04/11 03:31:29;;;;;;;;;;;8.50;92.60;;;;;;5094076;28;20017;-82
2022/04/11 03:33:56;;;;;;;;;;;8.40;92.90;;;;;;5094042;28;19924;-82
2022/04/11 03:36:24;;;;;;;;;;;8.30;93.30;;;;;;5094006;28;19931;-81
2022/04/11 03:38:52;;;;;;;;;;;8.40;93.40;;;;;;5093748;28;19930;-81
2022/04/11 03:41:19;;;;;;;;;;;8.50;93.40;;;;;;5093987;28;19931;-81
2022/04/11 03:43:46;;;;;;;;;;;8.60;93.50;;;;;;5093686;28;20394;-80
2022/04/11 03:46:12;;;;;;;;;;;8.70;93.40;;;;;;5093817;28;19924;-80
2022/04/11 03:48:39;;;;;;;;;;;8.70;93.40;;;;;;5090270;28;19967;-80
2022/04/11 03:51:06;;;;;;;;;;;8.60;93.50;;;;;;5090348;28;19924;-81
2022/04/11 03:53:33;;;;;;;;;;;8.60;93.70;;;;;;5093660;28;19981;-81
2022/04/11 03:56:01;;;;;;;;;;;8.60;93.80;;;;;;5093937;28;19928;-81
2022/04/11 03:58:27;;;;;;;;;;;8.60;93.70;;;;;;5093928;28;19993;-81
2022/04/11 04:00:54;;;;;;;;;;;8.50;93.70;;;;;;5094055;28;20347;-81
2022/04/11 04:03:21;;;;;;;;;;;8.70;93.60;;;;;;5093699;28;19982;-81
2022/04/11 04:05:48;;;;;;;;;;;8.70;93.40;;;;;;5093736;28;19963;-81
2022/04/11 04:08:17;;;;;;;;;;;8.60;93.50;;;;;;5093530;28;20424;-81
2022/04/11 04:10:44;;;;;;;;;;;8.70;93.60;;;;;;5093832;28;19931;-81
2022/04/11 04:13:12;;;;;;;;;;;8.70;93.60;;;;;;5096734;28;19967;-81
2022/04/11 04:15:39;;;;;;;;;;;8.20;93.50;;;;;;5097953;28;20052;-80
2022/04/11 04:18:06;;;;;;;;;;;8.60;93.80;;;;;;5097750;28;20370;-81
2022/04/11 04:20:32;;;;;;;;;;;8.70;93.90;;;;;;5097916;28;19924;-82
2022/04/11 04:22:59;;;;;;;;;;;8.70;93.90;;;;;;5097496;28;19974;-81
2022/04/11 04:25:26;;;;;;;;;;;8.70;94.00;;;;;;5097622;28;19924;-81
2022/04/11 04:27:53;;;;;;;;;;;8.70;94.20;;;;;;5097612;28;20040;-81
2022/04/11 04:30:21;;;;;;;;;;;8.70;94.30;;;;;;5097320;28;19928;-81
2022/04/11 04:32:48;;;;;;;;;;;8.70;94.30;;;;;;5097646;28;19928;-82
2022/04/11 04:35:15;;;;;;;;;;;8.70;94.40;;;;;;5097485;28;19989;-81
2022/04/11 04:37:41;;;;;;;;;;;8.70;94.60;;;;;;5096993;28;20413;-81
2022/04/11 04:40:09;;;;;;;;;;;8.70;94.60;;;;;;5097421;28;19924;-82
2022/04/11 04:42:36;;;;;;;;;;;8.60;94.80;;;;;;5097771;28;19924;-80
2022/04/11 04:45:03;;;;;;;;;;;8.60;95.20;;;;;;5097398;28;19979;-80
2022/04/11 04:47:31;;;;;;;;;;;8.60;94.90;;;;;;5097048;28;19946;-80
2022/04/11 04:49:58;;;;;;;;;;;8.60;95.20;;;;;;5097649;28;19930;-81
2022/04/11 04:52:24;;;;;;;;;;;8.60;95.30;;;;;;5097310;28;19967;-80
2022/04/11 04:54:51;;;;;;;;;;;8.60;95.40;;;;;;5097363;28;20039;-81
2022/04/11 04:57:18;;;;;;;;;;;8.60;95.50;;;;;;5097078;28;19977;-81
2022/04/11 04:59:45;;;;;;;;;;;8.40;95.50;;;;;;5097019;28;19928;-81
2022/04/11 05:02:11;;;;;;;;;;;8.50;95.80;;;;;;5096569;28;20357;-80
2022/04/11 05:04:39;;;;;;;;;;;8.60;95.80;;;;;;5096993;28;19975;-81
2022/04/11 05:07:06;;;;;;;;;;;8.60;95.80;;;;;;5096520;28;20412;-80
2022/04/11 05:09:33;;;;;;;;;;;8.60;95.90;;;;;;5096669;28;19924;-81
2022/04/11 05:12:00;;;;;;;;;;;8.60;96.10;;;;;;5096943;28;19975;-80
2022/04/11 05:14:26;;;;;;;;;;;8.50;96.30;;;;;;5097021;28;19974;-81
2022/04/11 05:16:53;;;;;;;;;;;8.50;96.40;;;;;;5096580;28;20398;-80
2022/04/11 05:19:20;;;;;;;;;;;8.60;96.40;;;;;;5096516;28;20378;-81
2022/04/11 05:21:48;;;;;;;;;;;8.50;96.50;;;;;;5096513;28;19963;-80
2022/04/11 05:24:15;;;;;;;;;;;8.60;96.50;;;;;;5096045;28;19928;-81
2022/04/11 05:26:41;;;;;;;;;;;8.50;96.60;;;;;;5096708;28;19931;-81
2022/04/11 05:29:08;;;;;;;;;;;8.50;96.80;;;;;;5096625;28;19975;-81
2022/04/11 05:31:35;;;;;;;;;;;8.50;96.70;;;;;;5095974;28;20390;-81
2022/04/11 05:34:05;;;;;;;;;;;8.50;96.80;;;;;;5096195;28;19971;-80
2022/04/11 05:36:32;;;;;;;;;;;8.50;96.80;;;;;;5095584;28;20395;-82
2022/04/11 05:39:00;;;;;;;;;;;8.50;97.10;;;;;;5095764;28;19982;-81
2022/04/11 05:41:27;;;;;;;;;;;8.50;97.10;;;;;;5095649;28;20333;-81
2022/04/11 05:43:53;;;;;;;;;;;7.90;96.90;;;;;;5095528;28;19924;-81
2022/04/11 05:46:20;;;;;;;;;;;8.40;97.20;;;;;;5095781;28;19928;-81
2022/04/11 05:48:47;;;;;;;;;;;8.40;97.30;;;;;;5095881;28;19977;-81
2022/04/11 05:51:14;;;;;;;;;;;8.50;97.30;;;;;;5095376;28;19950;-81
2022/04/11 05:53:41;;;;;;;;;;;8.60;97.20;;;;;;5095367;28;19971;-81
2022/04/11 05:56:09;;;;;;;;;;;8.60;97.10;;;;;;5095835;28;20316;-81
2022/04/11 05:58:36;;;;;;;;;;;8.60;97.20;;;;;;5096017;28;19931;-81
2022/04/11 06:01:03;;;;;;;;;;;8.60;97.10;;;;;;5095774;28;20397;-81
2022/04/11 06:03:29;;;;;;;;;;;8.70;97.10;;;;;;5095421;28;19946;-81
2022/04/11 06:05:56;;;;;;;;;;;8.90;97.10;;;;;;5096008;28;19924;-81
2022/04/11 06:08:23;;;;;;;;;;;8.70;97.10;;;;;;5095272;28;20387;-81
2022/04/11 06:10:49;;;;;;;;;;;8.80;96.90;;;;;;5095362;28;20352;-81
2022/04/11 06:13:18;;;;;;;;;;;8.80;97.00;;;;;;5095120;28;19972;-80
2022/04/11 06:15:44;;;;;;;;;;;8.90;96.90;;;;;;5095472;28;19946;-81
2022/04/11 06:18:11;;;;;;;;;;;8.90;97.00;;;;;;5095326;28;19963;-81
2022/04/11 06:20:38;;;;;;;;;;;9.10;96.90;;;;;;5095331;28;20281;-81
2022/04/11 06:23:04;;;;;;;;;;;9.30;96.70;;;;;;5095039;28;19977;-81
2022/04/11 06:25:31;;;;;;;;;;;9.40;96.50;;;;;;5095211;28;20294;-81
2022/04/11 06:27:58;;;;;;;;;;;9.10;96.30;;;;;;5095429;28;19963;-81
2022/04/11 06:30:26;;;;;;;;;;;9.60;96.30;;;;;;5095035;28;19975;-81
2022/04/11 06:32:53;;;;;;;;;;;9.50;96.30;;;;;;5095189;28;19982;-81
2022/04/11 06:35:19;;;;;;;;;;;9.50;96.50;;;;;;5095188;28;19966;-81
2022/04/11 06:37:46;;;;;;;;;;;9.50;96.50;;;;;;5094799;28;20007;-81
2022/04/11 06:40:13;;;;;;;;;;;9.50;96.50;;;;;;5094988;28;19969;-81
2022/04/11 06:42:40;;;;;;;;;;;9.60;96.50;;;;;;5095122;28;19924;-81
2022/04/11 06:45:07;;;;;;;;;;;9.80;96.40;;;;;;5095848;28;19924;-80
2022/04/11 06:47:35;;;;;;;;;;;9.80;96.10;;;;;;5095045;28;20278;-80
2022/04/11 06:50:02;;;;;;;;;;;9.70;96.20;;;;;;5094871;28;19924;-82
2022/04/11 06:52:29;;;;;;;;;;;9.70;96.30;;;;;;5094688;28;19985;-80
2022/04/11 06:54:56;;;;;;;;;;;9.60;96.60;;;;;;5094921;28;20005;-82
2022/04/11 06:57:23;;;;;;;;;;;9.60;96.70;;;;;;5094353;28;20320;-80
2022/04/11 06:59:50;;;;;;;;;;;9.70;96.90;;;;;;5094782;28;19930;-81
2022/04/11 07:02:17;;;;;;;;;;;9.80;96.80;;;;;;5094462;28;19985;-81
2022/04/11 07:04:45;;;;;;;;;;;9.80;96.60;;;;;;5094527;28;20008;-81
2022/04/11 07:07:12;;;;;;;;;;;9.80;96.80;;;;;;5094636;28;19925;-80
2022/04/11 07:09:39;;;;;;;;;;;9.90;98.00;;;;;;5094630;28;19960;-81
2022/04/11 07:12:06;;;;;;;;;;;10.20;96.70;;;;;;5094229;28;20339;-81
2022/04/11 07:14:33;;;;;;;;;;;10.20;96.30;;;;;;5094120;28;19993;-81
2022/04/11 07:17:00;;;;;;;;;;;10.40;96.20;;;;;;5094163;28;19954;-81
2022/04/11 07:19:26;;;;;;;;;;;10.50;96.20;;;;;;5094088;28;19981;-81
2022/04/11 07:21:54;;;;;;;;;;;10.50;96.10;;;;;;5094200;28;19924;-81
2022/04/11 07:24:21;;;;;;;;;;;10.50;96.10;;;;;;5093871;28;19985;-81
2022/04/11 07:26:48;;;;;;;;;;;10.10;95.90;;;;;;5094027;28;19959;-81
2022/04/11 07:29:14;;;;;;;;;;;10.60;96.20;;;;;;5093387;28;20361;-81
2022/04/11 07:31:41;;;;;;;;;;;10.60;96.00;;;;;;5093307;28;20435;-81
2022/04/11 07:34:08;;;;;;;;;;;10.70;96.20;;;;;;5093900;28;19978;-81
2022/04/11 07:36:35;;;;;;;;;;;10.80;96.10;;;;;;5093791;28;19969;-81
2022/04/11 07:39:03;;;;;;;;;;;10.90;95.90;;;;;;5093419;28;20344;-80
2022/04/11 07:41:30;;;;;;;;;;;11.00;95.90;;;;;;5093830;28;19924;-81
2022/04/11 07:43:58;;;;;;;;;;;11.10;95.60;;;;;;5100525;28;19942;-81
2022/04/11 07:46:24;;;;;;;;;;;11.30;95.40;;;;;;5113628;28;19923;-81
2022/04/11 07:48:51;;;;;;;;;;;11.20;95.60;;;;;;5091184;28;20417;-80
2022/04/11 07:51:21;;;;;;;;;;;12.50;96.00;;;;;;5063206;28;20015;-80
2022/04/11 07:53:48;;;;;;;;;;;11.30;95.30;;;;;;5070700;28;19979;-80
2022/04/11 07:56:16;;;;;;;;;;;11.40;95.60;;;;;;5081078;28;19979;-80
2022/04/11 07:58:43;;;;;;;;;;;11.40;95.70;;;;;;5016405;28;19985;-81
2022/04/11 08:01:16;;;;;;;;;;;11.90;97.40;;;;;;5045201;28;19967;-83
2022/04/11 08:03:43;;;;;;;;;;;11.70;96.70;;;;;;5092083;28;19939;-85
2022/04/11 08:06:10;;;;;;;;;;;11.40;95.40;;;;;;5085675;28;19932;-84
2022/04/11 08:08:37;;;;;;;;;;;11.50;95.10;;;;;;5080221;28;19947;-82
2022/04/11 08:11:03;;;;;;;;;;;11.30;95.10;;;;;;5059841;28;19952;-85
2022/04/11 08:13:31;;;;;;;;;;;11.30;94.80;;;;;;5085649;28;19980;-82
2022/04/11 08:15:58;;;;;;;;;;;11.40;95.20;;;;;;5086105;28;19979;-83
2022/04/11 08:18:25;;;;;;;;;;;11.40;95.00;;;;;;5085965;28;19964;-83
2022/04/11 08:20:52;;;;;;;;;;;11.40;95.10;;;;;;5079030;28;20001;-82
2022/04/11 08:23:19;;;;;;;;;;;11.40;95.10;;;;;;5061709;28;19967;-83
2022/04/11 08:25:47;;;;;;;;;;;11.40;95.40;;;;;;5060904;28;19959;-83
2022/04/11 08:28:14;;;;;;;;;;;11.50;95.40;;;;;;5080946;28;19932;-83
2022/04/11 08:30:43;;;;;;;;;;;11.50;95.50;;;;;;5074620;28;20936;-84
2022/04/11 08:33:11;;;;;;;;;;;11.80;95.30;;;;;;5076632;28;19939;-86
2022/04/11 08:35:38;;;;;;;;;;;11.70;96.50;;;;;;5076929;28;19924;-84
2022/04/11 08:38:05;;;;;;;;;;;11.70;95.60;;;;;;5065782;28;19933;-84
2022/04/11 08:40:32;;;;;;;;;;;12.30;96.10;;;;;;5078648;28;19928;-83
2022/04/11 08:43:00;;;;;;;;;;;11.90;95.10;;;;;;5072106;28;19924;-84
2022/04/11 08:45:28;;;;;;;;;;;11.90;94.50;;;;;;5076410;28;19939;-84
2022/04/11 08:47:57;;;;;;;;;;;11.90;94.70;;;;;;5073131;28;19938;-84
2022/04/11 08:50:24;;;;;;;;;;;11.80;94.80;;;;;;5079225;28;19954;-84
2022/04/11 08:52:51;;;;;;;;;;;11.40;95.10;;;;;;5077671;28;19950;-83
2022/04/11 08:55:18;;;;;;;;;;;11.80;94.90;;;;;;5072661;28;19932;-86
2022/04/11 08:57:45;;;;;;;;;;;11.90;95.00;;;;;;5076203;28;19924;-87
2022/04/11 09:00:13;;;;;;;;;;;10.20;95.00;;;;;;5080771;28;19949;-83
2022/04/11 09:02:43;;;;;;;;;;;12.00;94.40;;;;;;5085216;28;19925;-84
2022/04/11 09:05:12;;;;;;;;;;;12.10;94.30;;;;;;5086170;28;20064;-85
2022/04/11 09:07:46;;;;;;;;;;;12.20;93.90;;;;;;5084800;28;20418;-84
2022/04/11 09:10:13;;;;;;;;;;;12.20;93.70;;;;;;5087315;28;19971;-85
2022/04/11 09:12:50;;;;;;;;;;;11.60;93.60;;;;;;5078252;28;19928;-83
2022/04/11 09:15:17;;;;;;;;;;;12.40;93.70;;;;;;5077045;28;19986;-84
2022/04/11 09:17:44;;;;;;;;;;;12.90;94.30;;;;;;5079715;28;19958;-86
2022/04/11 09:20:14;;;;;;;;;;;12.50;94.10;;;;;;5084921;28;19924;-86
2022/04/11 09:22:41;;;;;;;;;;;12.60;93.80;;;;;;5079908;28;19952;-84
2022/04/11 09:25:11;;;;;;;;;;;11.90;94.00;;;;;;5079136;28;19928;-85
2022/04/11 09:27:37;;;;;;;;;;;12.70;93.20;;;;;;5079096;28;19932;-84
2022/04/11 09:30:24;;;;;;;;;;;12.70;93.70;;;;;;5084233;28;22247;-84
2022/04/11 09:32:51;;;;;;;;;;;12.60;93.10;;;;;;5079330;28;19929;-84
2022/04/11 09:35:21;;;;;;;;;;;12.40;93.40;;;;;;5069762;28;20094;-83
2022/04/11 09:37:48;;;;;;;;;;;11.80;93.70;;;;;;5083765;28;20471;-83
2022/04/11 09:40:21;;;;;;;;;;;12.30;93.60;;;;;;5070911;28;19951;-82
2022/04/11 09:42:57;;;;;;;;;;;12.30;93.60;;;;;;5077080;28;20697;-84
2022/04/11 09:45:24;;;;;;;;;;;12.40;93.30;;;;;;5076237;28;19931;-81
2022/04/11 09:48:01;;;;;;;;;;;12.50;94.00;;;;;;5079888;28;19936;-85
2022/04/11 09:50:34;;;;;;;;;;;12.70;93.10;;;;;;5073759;28;19924;-83
2022/04/11 09:53:08;;;;;;;;;;;12.60;93.00;;;;;;5080341;28;20525;-85
2022/04/11 09:55:35;;;;;;;;;;;12.70;93.00;;;;;;5081032;28;20340;-83
2022/04/11 09:58:02;;;;;;;;;;;12.80;93.20;;;;;;5064418;28;19939;-83
2022/04/11 10:00:30;;;;;;;;;;;12.90;93.10;;;;;;5075127;28;19924;-84
2022/04/11 10:02:57;;;;;;;;;;;12.90;92.80;;;;;;5078714;28;19931;-83
2022/04/11 10:05:24;;;;;;;;;;;13.20;92.60;;;;;;5073746;28;19932;-83
2022/04/11 10:07:54;;;;;;;;;;;13.40;92.50;;;;;;5079316;28;19924;-84
2022/04/11 10:10:21;;;;;;;;;;;13.50;92.00;;;;;;5079165;28;19932;-84
2022/04/11 10:12:48;;;;;;;;;;;13.70;92.00;;;;;;5086363;28;19967;-84
2022/04/11 10:15:16;;;;;;;;;;;14.00;91.90;;;;;;5082100;28;20466;-84
2022/04/11 10:17:42;;;;;;;;;;;14.00;91.50;;;;;;5079723;28;20385;-83
2022/04/11 10:20:09;;;;;;;;;;;13.90;90.60;;;;;;5079315;28;19924;-83
2022/04/11 10:22:41;;;;;;;;;;;13.80;90.80;;;;;;5074137;28;19925;-85
2022/04/11 10:25:09;;;;;;;;;;;13.90;90.10;;;;;;5064925;28;19928;-85
2022/04/11 10:27:38;;;;;;;;;;;14.10;90.20;;;;;;5079793;28;20347;-83
2022/04/11 10:30:25;;;;;;;;;;;14.20;91.30;;;;;;5067479;28;20405;-83
2022/04/11 10:32:55;;;;;;;;;;;14.30;90.90;;;;;;5081967;28;19967;-83
2022/04/11 10:35:32;;;;;;;;;;;14.30;90.10;;;;;;5078159;28;19935;-82
2022/04/11 10:38:08;;;;;;;;;;;14.30;90.30;;;;;;5077963;28;19932;-88
2022/04/11 10:40:37;;;;;;;;;;;14.30;90.10;;;;;;5073516;28;19927;-84
2022/04/11 10:43:15;;;;;;;;;;;14.50;90.40;;;;;;5075288;28;19928;-83
2022/04/11 10:45:42;;;;;;;;;;;14.50;90.40;;;;;;5073755;28;19935;-84
2022/04/11 10:48:10;;;;;;;;;;;14.40;90.30;;;;;;5075093;28;19967;-84
2022/04/11 10:50:38;;;;;;;;;;;14.40;90.40;;;;;;5076772;28;20378;-82
2022/04/11 10:53:15;;;;;;;;;;;14.40;90.00;;;;;;5081985;28;19925;-83
2022/04/11 10:56:02;;;;;;;;;;;14.50;90.20;;;;;;5084217;28;20449;-82
2022/04/11 10:58:43;;;;;;;;;;;14.60;88.30;;;;;;5072637;28;19932;-84
2022/04/11 11:01:10;;;;;;;;;;;14.60;88.90;;;;;;5077664;28;20332;-84
2022/04/11 11:03:39;;;;;;;;;;;14.60;89.50;;;;;;5082878;28;19974;-83
2022/04/11 11:06:17;;;;;;;;;;;14.40;89.70;;;;;;5080999;28;20009;-81
2022/04/11 11:08:44;;;;;;;;;;;14.40;89.80;;;;;;5081757;28;20011;-84
2022/04/11 11:11:21;;;;;;;;;;;13.40;89.90;;;;;;5071966;28;20019;-84
2022/04/11 11:13:50;;;;;;;;;;;14.70;90.00;;;;;;5081576;28;20027;-84
2022/04/11 11:16:27;;;;;;;;;;;14.80;89.90;;;;;;5084513;28;19924;-84
2022/04/11 11:19:10;;;;;;;;;;;15.00;89.70;;;;;;5075243;28;21789;-84
2022/04/11 11:21:52;;;;;;;;;;;15.20;89.10;;;;;;5078623;28;19947;-83
2022/04/11 11:24:19;;;;;;;;;;;15.30;88.80;;;;;;5070838;28;19983;-83
2022/04/11 11:26:48;;;;;;;;;;;15.20;90.10;;;;;;5072983;28;19932;-83
2022/04/11 11:29:17;;;;;;;;;;;15.70;87.80;;;;;;5075971;28;20474;-82
2022/04/11 11:31:44;;;;;;;;;;;16.00;88.40;;;;;;5084974;28;19939;-82
2022/04/11 11:34:12;;;;;;;;;;;16.50;88.10;;;;;;5087273;28;19935;-83
2022/04/11 11:36:39;;;;;;;;;;;16.50;87.80;;;;;;5079231;28;19963;-84
2022/04/11 11:39:11;;;;;;;;;;;15.80;87.40;;;;;;5083548;28;19963;-84
2022/04/11 11:41:42;;;;;;;;;;;15.90;88.10;;;;;;5083622;28;20138;-83
2022/04/11 11:44:09;;;;;;;;;;;16.00;85.20;;;;;;5076955;28;20278;-83
2022/04/11 11:46:47;;;;;;;;;;;16.00;85.50;;;;;;5085728;28;19970;-83
2022/04/11 11:49:14;;;;;;;;;;;15.90;86.00;;;;;;5090403;28;19973;-84
2022/04/11 11:51:41;;;;;;;;;;;15.90;83.70;;;;;;5091086;28;19928;-85
2022/04/11 11:54:07;;;;;;;;;;;15.80;83.80;;;;;;5086179;28;19938;-84
2022/04/11 11:56:41;;;;;;;;;;;15.90;84.10;;;;;;5089284;28;19924;-84
2022/04/11 11:59:08;;;;;;;;;;;16.10;83.30;;;;;;5085517;28;19932;-84
2022/04/11 12:01:34;;;;;;;;;;;16.00;82.70;;;;;;5080844;28;20340;-84
2022/04/11 12:04:20;;;;;;;;;;;15.90;83.10;;;;;;5090983;28;19982;-84
2022/04/11 12:06:52;;;;;;;;;;;16.00;82.10;;;;;;5094674;28;19924;-84
2022/04/11 12:09:19;;;;;;;;;;;16.50;82.50;;;;;;5078649;28;20293;-85
2022/04/11 12:11:46;;;;;;;;;;;15.90;83.30;;;;;;5092575;28;19968;-84
2022/04/11 12:14:12;;;;;;;;;;;15.90;83.30;;;;;;5092544;28;20010;-83
2022/04/11 12:16:40;;;;;;;;;;;16.00;82.50;;;;;;5074602;28;19960;-85
2022/04/11 12:19:08;;;;;;;;;;;16.10;82.70;;;;;;5033537;28;20949;-85
2022/04/11 12:21:36;;;;;;;;;;;16.30;82.10;;;;;;5072152;28;20536;-84
2022/04/11 12:24:03;;;;;;;;;;;16.20;81.70;;;;;;5064098;28;19991;-84
2022/04/11 12:26:31;;;;;;;;;;;16.00;81.50;;;;;;5082171;28;19967;-84
2022/04/11 12:28:58;;;;;;;;;;;16.10;81.90;;;;;;5079831;28;19924;-84
2022/04/11 12:31:27;;;;;;;;;;;16.20;80.70;;;;;;5073797;28;19967;-84
2022/04/11 12:33:54;;;;;;;;;;;16.20;79.80;;;;;;5081862;28;19931;-84
2022/04/11 12:36:23;;;;;;;;;;;16.20;80.30;;;;;;5085525;28;19932;-85
2022/04/11 12:38:52;;;;;;;;;;;16.20;79.90;;;;;;5083725;28;19972;-83
2022/04/11 12:41:29;;;;;;;;;;;16.20;80.40;;;;;;5064222;28;20247;-85
2022/04/11 12:44:04;;;;;;;;;;;16.30;80.40;;;;;;5068315;28;19939;-85
2022/04/11 12:46:31;;;;;;;;;;;16.40;81.50;;;;;;5089656;28;19935;-85
2022/04/11 12:48:58;;;;;;;;;;;16.60;81.60;;;;;;5080725;28;20239;-83
2022/04/11 12:51:27;;;;;;;;;;;16.80;81.10;;;;;;5080862;28;19925;-83
2022/04/11 12:54:00;;;;;;;;;;;17.10;81.60;;;;;;5094277;28;19924;-84
2022/04/11 12:56:32;;;;;;;;;;;17.20;81.40;;;;;;5083605;28;19932;-84
2022/04/11 12:58:59;;;;;;;;;;;17.30;81.00;;;;;;5089851;28;20267;-84
2022/04/11 13:01:46;;;;;;;;;;;17.10;81.80;;;;;;5074836;28;19971;-83
2022/04/11 13:04:13;;;;;;;;;;;16.90;81.50;;;;;;5082560;28;19975;-83
2022/04/11 13:06:41;;;;;;;;;;;16.70;82.50;;;;;;5079575;28;20381;-83
2022/04/11 13:09:08;;;;;;;;;;;16.50;83.00;;;;;;5075358;28;20023;-84
2022/04/11 13:11:40;;;;;;;;;;;16.50;82.90;;;;;;5078506;28;20014;-83
2022/04/11 13:14:07;;;;;;;;;;;16.50;82.40;;;;;;5079509;28;20338;-84
2022/04/11 13:19:18;;;;;;;;;;;16.60;82.60;;;;;;5079183;28;20321;-84
2022/04/11 13:21:46;;;;;;;;;;;16.80;81.60;;;;;;5086501;28;19944;-85
2022/04/11 13:24:13;;;;;;;;;;;16.90;79.50;;;;;;5078579;28;19985;-84
2022/04/11 13:26:40;;;;;;;;;;;16.90;78.50;;;;;;5076877;28;19970;-84
2022/04/11 13:29:07;;;;;;;;;;;16.50;78.00;;;;;;5078770;28;19932;-84
2022/04/11 13:31:34;;;;;;;;;;;17.00;77.40;;;;;;5085516;28;19967;-85
2022/04/11 13:34:00;;;;;;;;;;;17.10;78.30;;;;;;5082772;28;20404;-85
2022/04/11 13:36:27;;;;;;;;;;;17.30;81.90;;;;;;5087043;28;19935;-84
2022/04/11 13:38:55;;;;;;;;;;;17.40;81.50;;;;;;5080192;28;20412;-85
2022/04/11 13:41:22;;;;;;;;;;;17.20;78.90;;;;;;5085155;28;19997;-86
2022/04/11 13:43:49;;;;;;;;;;;17.80;79.40;;;;;;5095745;28;19973;-84
2022/04/11 13:46:17;;;;;;;;;;;16.90;79.40;;;;;;5091311;28;20408;-85
2022/04/11 13:48:44;;;;;;;;;;;16.90;80.50;;;;;;5081887;28;19924;-85
2022/04/11 13:51:10;;;;;;;;;;;17.00;80.70;;;;;;5085483;28;19925;-84
2022/04/11 13:53:37;;;;;;;;;;;16.50;81.40;;;;;;5091255;28;19958;-84
2022/04/11 13:56:06;;;;;;;;;;;16.50;81.40;;;;;;5092810;28;19967;-84
2022/04/11 13:58:33;;;;;;;;;;;16.40;81.00;;;;;;5083447;28;19924;-88
2022/04/11 14:01:00;;;;;;;;;;;16.40;82.30;;;;;;5073898;28;20418;-86
2022/04/11 14:03:26;;;;;;;;;;;17.10;82.60;;;;;;5076799;28;20456;-85
2022/04/11 14:06:04;;;;;;;;;;;16.50;81.60;;;;;;5084034;28;19940;-90
2022/04/11 14:08:31;;;;;;;;;;;16.50;80.70;;;;;;5083559;28;19924;-88
2022/04/11 14:10:57;;;;;;;;;;;17.20;82.80;;;;;;5075801;28;19928;-87
2022/04/11 14:13:26;;;;;;;;;;;16.60;80.90;;;;;;5078233;28;19959;-85
2022/04/11 14:15:52;;;;;;;;;;;16.60;80.70;;;;;;5081579;28;19932;-85
2022/04/11 14:18:19;;;;;;;;;;;16.60;80.80;;;;;;5082807;28;19964;-85
2022/04/11 14:20:46;;;;;;;;;;;16.70;80.80;;;;;;5079529;28;19970;-85
2022/04/11 14:23:13;;;;;;;;;;;16.80;81.00;;;;;;5075742;28;19993;-86
2022/04/11 14:25:40;;;;;;;;;;;17.00;81.40;;;;;;5084379;28;19967;-85
2022/04/11 14:28:08;;;;;;;;;;;16.80;80.50;;;;;;5077739;28;19924;-84